Time;durP1;ratioP1;P1;durP2;ratioP2;P2;SDS_P1;SDS_P2;PMS_P1;PMS_P2;Temp;Humidity;BMP_temperature;BMP_pressure;BME280_temperature;BME280_humidity;BME280_pressure;Samples;Min_cycle;Max_cycle;Signal;HPM_P1;HPM_P2
2024/01/16 00:01:14;;;;;;;188.02;8.13;;;;;;;19.24;40.48;97937.91;7289855;19;131804;-39
2024/01/16 00:03:40;;;;;;;191.35;7.55;;;;;;;19.18;41.28;97938.56;7293104;19;129804;-37
2024/01/16 00:06:06;;;;;;;201.57;7.80;;;;;;;19.19;40.11;97932.38;7291426;19;129950;-38
2024/01/16 00:08:32;;;;;;;92.68;4.20;;;;;;;19.24;41.20;97940.50;7290875;19;130617;-38
2024/01/16 00:10:57;;;;;;;156.63;6.32;;;;;;;19.25;40.69;97933.50;7292343;19;130497;-39
2024/01/16 00:13:22;;;;;;;247.00;9.60;;;;;;;19.17;40.18;97936.91;7291458;19;132638;-37
2024/01/16 00:15:49;;;;;;;273.05;11.43;;;;;;;19.14;40.20;97936.44;7291179;19;130880;-38
2024/01/16 00:18:15;;;;;;;188.85;8.15;;;;;;;19.11;41.27;97947.19;7290116;19;134114;-38
2024/01/16 00:20:40;;;;;;;184.13;7.18;;;;;;;19.19;41.21;97940.19;7291998;19;129658;-37
2024/01/16 00:23:05;;;;;;;238.70;9.43;;;;;;;19.19;41.17;97942.78;7289491;19;131138;-38
2024/01/16 00:25:31;;;;;;;184.57;7.68;;;;;;;18.96;41.37;97915.78;7290128;19;130547;-37
2024/01/16 00:27:56;;;;;;;171.45;6.90;;;;;;;19.11;41.05;97942.78;7292179;19;130888;-38
2024/01/16 00:30:21;;;;;;;154.27;6.43;;;;;;;19.11;41.03;97953.22;7291909;19;129730;-38
2024/01/16 00:32:47;;;;;;;271.83;10.55;;;;;;;19.04;41.72;97957.44;7291792;19;129110;-36
2024/01/16 00:35:12;;;;;;;200.57;8.32;;;;;;;19.05;42.02;97964.28;7290789;19;129234;-37
2024/01/16 00:37:37;;;;;;;186.00;7.38;;;;;;;19.00;41.88;97966.56;7287566;19;130604;-36
2024/01/16 00:40:04;;;;;;;250.63;10.00;;;;;;;18.95;40.75;97963.63;7291123;19;133120;-37
2024/01/16 00:42:32;;;;;;;280.40;11.07;;;;;;;18.92;41.11;97971.78;7291326;19;129221;-37
2024/01/16 00:44:58;;;;;;;198.52;7.93;;;;;;;19.00;42.44;97958.75;7291180;19;128954;-38
2024/01/16 00:47:24;;;;;;;230.77;9.50;;;;;;;18.89;40.81;97942.66;7291540;19;130850;-38
2024/01/16 00:49:49;;;;;;;174.25;7.15;;;;;;;19.02;40.73;97967.19;7290591;19;130404;-37
2024/01/16 00:52:14;;;;;;;253.02;10.23;;;;;;;19.06;41.22;97970.28;7290865;19;130875;-38
2024/01/16 00:54:41;;;;;;;243.80;10.23;;;;;;;18.99;41.10;97970.13;7291116;19;130441;-43
2024/01/16 00:57:09;;;;;;;151.07;6.13;;;;;;;19.01;41.27;97981.22;7288574;19;130540;-37
2024/01/16 00:59:35;;;;;;;207.27;8.13;;;;;;;19.00;41.40;97984.81;7290074;19;130479;-37
2024/01/16 01:02:00;;;;;;;245.15;9.77;;;;;;;19.04;40.97;97983.47;7291266;19;130229;-37
2024/01/16 01:04:26;;;;;;;219.77;8.77;;;;;;;19.01;39.57;97988.19;7291570;19;131975;-38
2024/01/16 01:06:51;;;;;;;138.80;5.60;;;;;;;18.89;38.28;97992.91;7290034;19;130048;-37
2024/01/16 01:09:17;;;;;;;153.07;6.78;;;;;;;18.94;38.68;98002.88;7288041;19;129814;-38
2024/01/16 01:11:42;;;;;;;232.63;9.63;;;;;;;18.99;38.79;98004.00;7290465;19;130186;-38
2024/01/16 01:14:07;;;;;;;193.55;7.95;;;;;;;19.20;40.03;98014.75;7291496;19;129201;-37
2024/01/16 01:16:33;;;;;;;165.57;6.97;;;;;;;19.22;38.99;98004.97;7287186;19;129749;-37
2024/01/16 01:18:58;;;;;;;206.50;8.00;;;;;;;19.48;40.21;98016.06;7288529;19;131464;-38
2024/01/16 01:21:24;;;;;;;224.35;9.05;;;;;;;19.67;40.19;98012.28;7288225;19;129838;-38
2024/01/16 01:23:49;;;;;;;198.18;7.65;;;;;;;19.65;40.07;97990.00;7291062;19;130765;-38
2024/01/16 01:26:14;;;;;;;171.68;6.90;;;;;;;19.87;39.45;98020.56;7289786;19;131058;-36
2024/01/16 01:28:40;;;;;;;194.10;7.70;;;;;;;19.66;39.51;98018.50;7289220;19;131703;-36
2024/01/16 01:31:09;;;;;;;170.73;6.67;;;;;;;19.69;38.84;98025.16;7290075;19;130046;-36
2024/01/16 01:33:34;;;;;;;131.32;5.47;;;;;;;19.67;39.70;98021.94;7290594;19;130417;-39
2024/01/16 01:36:00;;;;;;;163.73;6.70;;;;;;;19.59;39.26;98025.34;7294832;19;131035;-38
2024/01/16 01:38:25;;;;;;;270.42;10.98;;;;;;;19.56;39.33;98028.28;7295937;19;130736;-35
2024/01/16 01:40:50;;;;;;;152.07;6.22;;;;;;;19.40;39.33;98034.31;7296500;19;131255;-38
2024/01/16 01:43:25;;;;;;;126.05;5.30;;;;;;;19.29;39.29;98039.84;7296509;19;129820;-38
2024/01/16 01:46:08;;;;;;;86.45;3.78;;;;;;;19.17;39.68;98038.50;7293087;19;131233;-38
2024/01/16 01:48:34;;;;;;;196.15;7.85;;;;;;;18.96;39.24;98003.50;7294614;19;129323;-38
2024/01/16 01:51:01;;;;;;;187.03;7.43;;;;;;;19.08;39.17;98036.88;7297699;19;131553;-37
2024/01/16 01:53:28;;;;;;;153.27;6.38;;;;;;;19.07;39.18;98044.88;7297683;19;131111;-37
2024/01/16 01:55:55;;;;;;;179.88;7.45;;;;;;;18.99;38.90;98048.25;7294857;19;130293;-38
2024/01/16 01:58:20;;;;;;;181.15;7.28;;;;;;;18.87;38.98;98012.28;7294481;19;130473;-37
2024/01/16 02:00:46;;;;;;;163.20;6.50;;;;;;;18.95;38.93;98038.34;7295868;19;129814;-37
2024/01/16 02:03:12;;;;;;;213.07;8.35;;;;;;;18.88;38.75;98026.91;7296333;19;129987;-37
2024/01/16 02:05:39;;;;;;;124.25;5.22;;;;;;;18.85;39.06;98025.47;7295476;19;131741;-38
2024/01/16 02:08:05;;;;;;;177.45;6.97;;;;;;;19.06;38.77;98053.63;7294936;19;130474;-37
2024/01/16 02:10:31;;;;;;;284.48;11.57;;;;;;;19.01;39.74;98056.72;7297149;19;131422;-39
2024/01/16 02:12:57;;;;;;;;;;;;;;;19.00;39.88;98057.72;7297630;19;129349;-35
2024/01/16 02:15:23;;;;;;;217.37;8.90;;;;;;;19.05;38.73;98062.44;7293509;19;130141;-38
2024/01/16 02:17:49;;;;;;;199.43;8.02;;;;;;;18.98;39.11;98058.84;7295054;19;130449;-40
2024/01/16 02:20:14;;;;;;;204.13;7.93;;;;;;;18.97;39.39;98065.81;7295460;19;130001;-37
2024/01/16 02:22:44;;;;;;;207.52;8.45;;;;;;;18.98;38.97;98062.25;7295952;19;129175;-36
2024/01/16 02:25:10;;;;;;;161.05;6.30;;;;;;;18.96;40.03;98074.63;7295637;19;132475;-38
2024/01/16 02:27:35;;;;;;;220.35;8.73;;;;;;;18.93;39.58;98074.94;7295250;19;131748;-36
2024/01/16 02:30:01;;;;;;;235.15;9.27;;;;;;;18.82;39.53;98074.44;7293912;19;129203;-37
2024/01/16 02:32:26;;;;;;;225.25;9.30;;;;;;;18.93;39.43;98082.75;7296086;19;129042;-36
2024/01/16 02:34:51;;;;;;;195.20;7.65;;;;;;;18.85;39.62;98082.75;7293540;19;130562;-37
2024/01/16 02:37:17;;;;;;;191.60;7.45;;;;;;;18.95;40.10;98080.00;7295716;19;130104;-37
2024/01/16 02:39:42;;;;;;;229.23;8.80;;;;;;;18.98;39.99;98085.72;7295685;19;129182;-38
2024/01/16 02:42:07;;;;;;;168.73;6.88;;;;;;;18.88;39.90;98082.44;7293990;19;130207;-36
2024/01/16 02:44:33;;;;;;;241.77;10.18;;;;;;;18.84;40.61;98086.31;7294543;19;130288;-38
2024/01/16 02:46:58;;;;;;;205.88;8.27;;;;;;;18.78;38.16;98089.56;7290178;19;129692;-42
2024/01/16 02:49:25;;;;;;;198.65;7.75;;;;;;;18.57;38.71;98075.31;7292274;19;129253;-41
2024/01/16 02:51:51;;;;;;;113.63;4.78;;;;;;;18.68;38.43;98101.06;7294860;19;129659;-42
2024/01/16 02:54:16;;;;;;;167.43;6.72;;;;;;;18.79;38.12;98106.78;7294482;19;134019;-45
2024/01/16 02:56:41;;;;;;;199.90;7.82;;;;;;;18.94;39.07;98104.41;7290590;19;129876;-44
2024/01/16 02:59:07;;;;;;;181.38;7.22;;;;;;;18.93;37.71;98103.59;7293690;19;129569;-38
2024/01/16 03:01:33;;;;;;;194.07;7.70;;;;;;;19.11;39.89;98085.22;7294384;19;129176;-38
2024/01/16 03:03:58;;;;;;;185.95;7.28;;;;;;;19.35;39.15;98106.94;7294963;19;130241;-38
2024/01/16 03:06:24;;;;;;;195.40;7.50;;;;;;;19.47;39.08;98114.47;7294106;19;130813;-44
2024/01/16 03:08:51;;;;;;;189.30;7.63;;;;;;;19.61;37.96;98121.63;7293631;19;130112;-42
2024/01/16 03:11:16;;;;;;;197.55;7.65;;;;;;;19.79;38.37;98120.50;7293558;19;130282;-39
2024/01/16 03:13:43;;;;;;;163.07;6.63;;;;;;;20.16;38.96;98125.22;7293883;19;130135;-42
2024/01/16 03:16:09;;;;;;;185.43;7.30;;;;;;;19.93;39.28;98127.66;7289817;19;132278;-43
2024/01/16 03:18:35;;;;;;;;;;;;;;;19.69;38.67;98134.66;7294251;19;130417;-38
2024/01/16 03:21:01;;;;;;;196.82;7.82;;;;;;;19.26;38.64;98126.13;7294593;19;129454;-42
2024/01/16 03:23:26;;;;;;;169.50;7.18;;;;;;;19.32;38.64;98148.16;7292941;19;130184;-43
2024/01/16 03:25:51;;;;;;;251.73;9.85;;;;;;;19.34;39.16;98140.97;7292972;19;130421;-38
2024/01/16 03:28:17;;;;;;;207.18;8.25;;;;;;;19.17;39.49;98144.53;7293559;19;129928;-38
2024/01/16 03:30:43;;;;;;;175.20;7.20;;;;;;;19.03;38.87;98147.72;7293375;19;130399;-37
2024/01/16 03:33:08;;;;;;;183.93;7.47;;;;;;;18.95;39.06;98151.13;7294778;19;131143;-40
2024/01/16 03:35:33;;;;;;;246.38;10.13;;;;;;;18.74;39.01;98132.47;7293923;19;130820;-40
2024/01/16 03:37:59;;;;;;;160.35;6.47;;;;;;;18.82;38.76;98140.34;7293544;19;129216;-38
2024/01/16 03:40:24;;;;;;;156.88;6.22;;;;;;;18.73;38.12;98130.84;7293823;19;130095;-38
2024/01/16 03:42:49;;;;;;;225.32;8.77;;;;;;;18.89;38.71;98151.75;7293384;19;130007;-38
2024/01/16 03:45:15;;;;;;;250.23;9.90;;;;;;;18.91;37.96;98156.78;7289901;19;130321;-41
2024/01/16 03:47:40;;;;;;;181.25;7.65;;;;;;;18.85;38.38;98155.66;7293515;19;130240;-39
2024/01/16 03:50:06;;;;;;;210.85;8.20;;;;;;;18.82;38.58;98145.56;7294253;19;129801;-42
2024/01/16 03:52:31;;;;;;;197.63;8.23;;;;;;;18.85;39.13;98160.84;7291101;19;131019;-39
2024/01/16 03:54:56;;;;;;;217.63;8.27;;;;;;;18.82;39.02;98155.97;7291985;19;130538;-40
2024/01/16 03:57:22;;;;;;;175.88;7.18;;;;;;;18.88;38.62;98163.13;7291469;19;129582;-41
2024/01/16 03:59:47;;;;;;;245.27;10.63;;;;;;;18.87;38.60;98169.34;7287446;19;130227;-43
2024/01/16 04:02:12;;;;;;;228.48;8.98;;;;;;;18.89;39.54;98174.38;7290684;19;129824;-40
2024/01/16 04:04:38;;;;;;;194.13;8.60;;;;;;;18.81;39.70;98175.16;7293985;19;130627;-38
2024/01/16 04:07:03;;;;;;;162.77;6.65;;;;;;;18.62;39.63;98159.78;7293414;19;130134;-41
2024/01/16 04:09:29;;;;;;;179.15;7.45;;;;;;;18.80;39.13;98168.31;7290199;19;131345;-41
2024/01/16 04:11:54;;;;;;;227.80;8.93;;;;;;;18.71;39.11;98176.25;7293839;19;131488;-40
2024/01/16 04:14:20;;;;;;;200.88;8.00;;;;;;;18.72;39.37;98183.91;7291473;19;130345;-40
2024/01/16 04:16:45;;;;;;;179.13;7.47;;;;;;;18.65;38.22;98184.66;7288267;19;129797;-42
2024/01/16 04:19:11;;;;;;;149.55;6.05;;;;;;;18.62;38.58;98190.19;7292119;19;131358;-45
2024/01/16 04:21:36;;;;;;;247.80;9.82;;;;;;;18.67;37.38;98196.56;7292086;19;129966;-45
2024/01/16 04:24:02;;;;;;;147.80;6.13;;;;;;;18.74;38.08;98194.16;7292499;19;130318;-41
2024/01/16 04:26:27;;;;;;;208.43;8.23;;;;;;;18.91;38.18;98196.66;7293284;19;130147;-39
2024/01/16 04:28:52;;;;;;;226.05;8.85;;;;;;;19.16;38.70;98190.59;7288653;19;130151;-40
2024/01/16 04:31:19;;;;;;;106.93;4.35;;;;;;;19.16;38.83;98189.75;7291798;19;130813;-45
2024/01/16 04:33:44;;;;;;;184.43;7.22;;;;;;;19.29;39.05;98200.56;7291759;19;132050;-39
2024/01/16 04:36:10;;;;;;;178.35;7.22;;;;;;;19.54;39.09;98204.88;7290769;19;129493;-39
2024/01/16 04:38:35;;;;;;;248.63;9.65;;;;;;;19.89;38.85;98199.38;7290461;19;129150;-38
2024/01/16 04:41:04;;;;;;;185.07;7.35;;;;;;;20.99;36.77;98194.38;7293181;19;130496;-41
2024/01/16 04:43:29;;;;;;;199.38;7.78;;;;;;;21.15;36.97;98189.88;7289996;19;129407;-38
2024/01/16 04:45:54;;;;;;;176.63;6.78;;;;;;;22.28;34.50;98200.38;7287919;19;131436;-38
2024/01/16 04:48:20;;;;;;;203.10;7.93;;;;;;;23.54;32.82;98179.13;7291462;19;129084;-41
2024/01/16 04:50:45;;;;;;;234.38;10.00;;;;;;;24.46;31.92;98191.28;7291538;19;133447;-38
2024/01/16 04:53:11;;;;;;;170.95;7.13;;;;;;;25.85;29.03;98186.44;7292269;19;131618;-40
2024/01/16 04:55:36;;;;;;;245.32;9.85;;;;;;;26.61;28.44;98193.72;7288569;19;129865;-38
2024/01/16 04:58:02;;;;;;;224.30;8.60;;;;;;;27.29;27.78;98200.28;7290266;19;129629;-39
2024/01/16 05:00:27;;;;;;;202.40;8.05;;;;;;;27.40;27.08;98195.16;7288745;19;130725;-44
2024/01/16 05:02:52;;;;;;;124.43;5.27;;;;;;;27.51;27.00;98193.66;7290585;19;130460;-42
2024/01/16 05:05:18;;;;;;;192.60;7.30;;;;;;;27.62;27.20;98191.16;7289304;19;130915;-37
2024/01/16 05:07:44;;;;;;;335.52;13.48;;;;;;;27.82;26.89;98196.31;7288171;19;129391;-39
2024/01/16 05:10:12;;;;;;;193.63;7.73;;;;;;;27.48;27.54;98183.53;7296777;19;130307;-42
2024/01/16 05:12:38;;;;;;;231.68;9.65;;;;;;;27.38;27.45;98199.00;7297013;19;130836;-38
2024/01/16 05:15:04;;;;;;;195.57;7.65;;;;;;;27.12;28.33;98199.91;7292230;19;129068;-40
2024/01/16 05:17:30;;;;;;;223.97;8.77;;;;;;;26.67;28.57;98199.03;7296691;19;129034;-42
2024/01/16 05:19:56;;;;;;;196.77;7.95;;;;;;;26.25;29.08;98202.06;7298002;19;130510;-41
2024/01/16 05:22:22;;;;;;;212.95;8.45;;;;;;;25.92;29.92;98206.47;7297662;19;131137;-39
2024/01/16 05:24:47;;;;;;;232.13;9.38;;;;;;;25.13;31.01;98204.59;7297080;19;130212;-45
2024/01/16 05:27:12;;;;;;;177.60;7.20;;;;;;;23.83;32.11;98220.97;7292238;19;129368;-45
2024/01/16 05:29:40;;;;;;;138.50;5.33;;;;;;;23.90;33.34;98226.31;7294407;19;130081;-38
2024/01/16 05:32:06;;;;;;;172.80;6.93;;;;;;;23.46;33.70;98241.38;7296043;19;130419;-45
2024/01/16 05:34:31;;;;;;;155.67;6.43;;;;;;;22.71;34.83;98235.53;7294849;19;130560;-43
2024/01/16 05:36:56;;;;;;;190.47;7.60;;;;;;;22.51;35.42;98242.25;7292573;19;129731;-38
2024/01/16 05:39:22;;;;;;;197.63;7.90;;;;;;;22.25;35.20;98241.81;7293017;19;130135;-40
2024/01/16 05:41:47;;;;;;;265.03;10.93;;;;;;;22.27;36.50;98239.81;7293955;19;130347;-39
2024/01/16 05:44:12;;;;;;;220.63;8.80;;;;;;;21.92;37.27;98256.94;7296659;19;130238;-39
2024/01/16 05:46:38;;;;;;;200.10;8.07;;;;;;;21.93;37.10;98259.38;7293021;19;130584;-44
2024/01/16 05:49:03;;;;;;;142.98;6.03;;;;;;;21.66;37.83;98261.66;7293012;19;130018;-38
2024/01/16 05:51:31;;;;;;;124.40;5.03;;;;;;;21.53;37.83;98257.00;7293612;19;129260;-39
2024/01/16 05:53:57;;;;;;;219.10;8.98;;;;;;;21.31;38.42;98272.63;7293412;19;129343;-42
2024/01/16 05:56:22;;;;;;;201.63;8.32;;;;;;;21.21;38.69;98262.38;7292194;19;132479;-39
2024/01/16 05:58:48;;;;;;;206.07;8.88;;;;;;;20.98;39.59;98244.97;7292632;19;130925;-41
2024/01/16 06:01:13;;;;;;;143.40;6.25;;;;;;;20.96;39.58;98268.63;7294653;19;130269;-43
2024/01/16 06:03:39;;;;;;;256.73;10.30;;;;;;;20.51;39.24;98247.50;7291064;19;129075;-43
2024/01/16 06:06:05;;;;;;;182.48;7.55;;;;;;;20.44;40.23;98280.47;7293880;19;130498;-40
2024/01/16 06:08:31;;;;;;;176.33;7.23;;;;;;;20.29;41.11;98264.66;7291495;19;130787;-38
2024/01/16 06:10:56;;;;;;;174.68;7.07;;;;;;;20.09;40.94;98278.97;7295167;19;131491;-41
2024/01/16 06:13:22;;;;;;;242.52;9.75;;;;;;;20.01;42.39;98275.53;7292621;19;130930;-41
2024/01/16 06:15:47;;;;;;;184.00;7.47;;;;;;;19.93;41.52;98283.34;7291517;19;129572;-36
2024/01/16 06:18:13;;;;;;;205.38;8.45;;;;;;;19.87;42.11;98294.41;7295332;19;130792;-38
2024/01/16 06:20:38;;;;;;;181.40;7.55;;;;;;;19.79;42.19;98307.44;7289238;19;131595;-44
2024/01/16 06:23:04;;;;;;;168.88;6.85;;;;;;;19.72;41.83;98307.25;7292835;19;130147;-45
2024/01/16 06:25:29;;;;;;;238.63;9.73;;;;;;;19.63;41.84;98308.22;7292196;19;129775;-42
2024/01/16 06:27:55;;;;;;;300.05;12.15;;;;;;;19.55;42.26;98315.19;7291334;19;130528;-39
2024/01/16 06:30:24;;;;;;;221.05;9.15;;;;;;;19.57;42.25;98308.03;7294148;19;130274;-39
2024/01/16 06:32:49;;;;;;;244.10;9.60;;;;;;;19.61;43.21;98309.31;7295698;19;129223;-41
2024/01/16 06:35:16;;;;;;;138.70;7.60;;;;;;;19.40;42.60;98287.09;7283677;19;130068;-37
2024/01/16 06:37:41;;;;;;;158.63;6.77;;;;;;;19.48;42.69;98313.19;7293208;19;131126;-42
2024/01/16 06:40:07;;;;;;;219.90;8.88;;;;;;;19.55;43.25;98320.41;7291667;19;131597;-39
2024/01/16 06:42:33;;;;;;;228.73;9.03;;;;;;;19.55;42.51;98323.00;7293500;19;129341;-38
2024/01/16 06:44:58;;;;;;;190.65;8.10;;;;;;;19.54;42.60;98331.78;7289475;19;129967;-44
2024/01/16 06:47:24;;;;;;;194.23;7.85;;;;;;;19.51;42.41;98334.72;7293519;19;130344;-42
2024/01/16 06:49:49;;;;;;;251.85;10.55;;;;;;;19.42;42.52;98337.28;7293874;19;129271;-40
2024/01/16 06:52:15;;;;;;;193.02;7.95;;;;;;;19.43;42.39;98333.72;7296589;19;131918;-39
2024/01/16 06:54:40;;;;;;;210.25;9.05;;;;;;;19.60;42.37;98334.59;7294614;19;129313;-45
2024/01/16 06:57:06;;;;;;;204.23;8.50;;;;;;;20.03;41.83;98341.41;7292682;19;131137;-42
2024/01/16 06:59:31;;;;;;;199.33;8.10;;;;;;;19.78;41.41;98347.53;7288575;19;130966;-44
2024/01/16 07:01:57;;;;;;;261.00;10.65;;;;;;;19.55;42.13;98354.28;7294573;19;130182;-39
2024/01/16 07:04:22;;;;;;;191.27;7.80;;;;;;;20.19;41.08;98357.13;7294951;19;129030;-40
2024/01/16 07:06:48;;;;;;;202.48;8.65;;;;;;;20.94;39.12;98330.66;7293487;19;130721;-37
2024/01/16 07:09:13;;;;;;;200.05;7.93;;;;;;;21.57;38.98;98357.66;7292731;19;130403;-42
2024/01/16 07:11:42;;;;;;;180.10;7.25;;;;;;;21.22;38.87;98358.06;7295582;19;129308;-39
2024/01/16 07:14:09;;;;;;;162.48;6.72;;;;;;;21.56;38.84;98360.44;7292225;19;129607;-44
2024/01/16 07:16:34;;;;;;;139.32;5.88;;;;;;;22.20;37.36;98360.13;7292158;19;130199;-38
2024/01/16 07:19:00;;;;;;;257.55;10.32;;;;;;;21.70;37.60;98342.22;7292422;19;130498;-39
2024/01/16 07:21:25;;;;;;;177.10;7.45;;;;;;;21.86;37.33;98375.38;7296914;19;129549;-43
2024/01/16 07:23:50;;;;;;;121.28;5.32;;;;;;;21.78;38.00;98376.22;7292752;19;129533;-39
2024/01/16 07:26:16;;;;;;;188.15;7.93;;;;;;;21.53;37.79;98379.91;7293960;19;130808;-39
2024/01/16 07:28:42;;;;;;;221.95;9.07;;;;;;;21.66;38.82;98377.56;7292804;19;132351;-38
2024/01/16 07:31:07;;;;;;;171.70;7.15;;;;;;;21.43;37.70;98387.13;7294012;19;129201;-39
2024/01/16 07:33:32;;;;;;;156.15;6.53;;;;;;;21.42;38.65;98379.47;7291595;19;129746;-37
2024/01/16 07:35:58;;;;;;;225.90;9.70;;;;;;;21.10;38.78;98387.34;7288441;19;129627;-37
2024/01/16 07:38:23;;;;;;;199.30;8.15;;;;;;;21.17;38.37;98399.56;7293330;19;131942;-40
2024/01/16 07:40:49;;;;;;;228.60;9.50;;;;;;;20.92;38.95;98403.19;7294931;19;133324;-40
2024/01/16 07:43:14;;;;;;;167.75;7.13;;;;;;;20.70;39.45;98398.63;7291709;19;130510;-39
2024/01/16 07:45:39;;;;;;;210.30;8.57;;;;;;;20.91;39.86;98414.59;7291546;19;130330;-43
2024/01/16 07:48:05;;;;;;;202.20;8.30;;;;;;;20.83;39.55;98419.84;7289451;19;131946;-35
2024/01/16 07:50:30;;;;;;;190.68;7.88;;;;;;;20.65;39.88;98432.22;7288116;19;130522;-39
2024/01/16 07:52:56;;;;;;;281.98;11.60;;;;;;;20.69;40.51;98430.94;7289567;19;131526;-42
2024/01/16 07:55:21;;;;;;;236.77;9.63;;;;;;;20.51;40.62;98430.28;7286712;19;129710;-39
2024/01/16 07:57:46;;;;;;;195.02;8.07;;;;;;;20.48;40.41;98438.41;7286868;19;129269;-37
2024/01/16 08:00:12;;;;;;;158.20;6.53;;;;;;;20.22;41.36;98443.72;7292633;19;129383;-38
2024/01/16 08:02:38;;;;;;;251.95;10.73;;;;;;;20.11;41.26;98441.38;7292091;19;129552;-38
2024/01/16 08:05:04;;;;;;;166.60;6.82;;;;;;;19.83;41.36;98413.06;7292344;19;130255;-38
2024/01/16 08:07:30;;;;;;;134.02;5.53;;;;;;;19.91;41.14;98440.00;7292744;19;131340;-40
2024/01/16 08:09:56;;;;;;;224.38;9.18;;;;;;;19.76;41.92;98453.78;7289141;19;130079;-38
2024/01/16 08:12:21;;;;;;;183.55;7.28;;;;;;;19.65;41.59;98451.44;7293982;19;131531;-41
2024/01/16 08:14:46;;;;;;;249.98;10.68;;;;;;;19.64;42.09;98465.44;7291405;19;130103;-38
2024/01/16 08:17:12;;;;;;;177.13;7.05;;;;;;;19.60;42.49;98464.97;7289720;19;130237;-37
2024/01/16 08:19:38;;;;;;;163.75;6.57;;;;;;;19.56;42.24;98457.56;7292375;19;130100;-36
2024/01/16 08:22:04;;;;;;;268.08;10.93;;;;;;;19.48;42.32;98461.75;7290803;19;129757;-39
2024/01/16 08:24:29;;;;;;;162.13;6.93;;;;;;;19.42;42.48;98454.56;7293768;19;130171;-40
2024/01/16 08:26:57;;;;;;;149.07;6.15;;;;;;;19.38;42.25;98455.84;7285279;19;131015;-36
2024/01/16 08:29:22;;;;;;;112.05;4.72;;;;;;;19.39;42.23;98452.28;7288102;19;130313;-40
2024/01/16 08:31:48;;;;;;;194.43;7.95;;;;;;;19.36;42.52;98452.56;7289848;19;129259;-38
2024/01/16 08:34:13;;;;;;;183.02;7.35;;;;;;;19.36;43.32;98463.00;7287971;19;130323;-37
2024/01/16 08:36:40;;;;;;;201.45;8.40;;;;;;;19.36;42.21;98463.00;7284551;19;130300;-36
2024/01/16 08:39:05;;;;;;;227.07;9.30;;;;;;;19.32;42.26;98464.25;7283519;19;132200;-35
2024/01/16 08:41:31;;;;;;;174.23;7.40;;;;;;;19.31;42.18;98467.84;7290639;19;129895;-40
2024/01/16 08:43:56;;;;;;;185.25;7.72;;;;;;;19.30;42.29;98463.59;7288274;19;131853;-36
2024/01/16 08:46:22;;;;;;;231.48;9.35;;;;;;;19.32;42.60;98456.44;7292572;19;132131;-40
2024/01/16 08:48:48;;;;;;;228.80;9.07;;;;;;;19.24;42.96;98445.94;7289913;19;130162;-34
2024/01/16 08:51:14;;;;;;;200.57;7.85;;;;;;;19.56;42.23;98479.25;7292300;19;129336;-39
2024/01/16 08:53:39;;;;;;;117.30;5.10;;;;;;;19.76;42.03;98474.63;7291420;19;133504;-36
2024/01/16 08:56:08;;;;;;;269.13;10.95;;;;;;;19.87;42.09;98477.78;7287904;19;131544;-34
2024/01/16 08:58:35;;;;;;;177.95;7.10;;;;;;;20.00;41.58;98487.81;7291048;19;131460;-36
2024/01/16 09:01:05;;;;;;;175.82;7.38;;;;;;;20.13;41.48;98478.56;7291039;19;129608;-40
2024/01/16 09:03:31;;;;;;;132.52;5.72;;;;;;;20.15;41.09;98481.03;7290765;19;130971;-40
2024/01/16 09:05:57;;;;;;;175.93;7.20;;;;;;;20.42;41.18;98488.66;7289915;19;129140;-37
2024/01/16 09:08:22;;;;;;;201.52;8.02;;;;;;;20.25;40.13;98497.38;7291452;19;130127;-38
2024/01/16 09:10:48;;;;;;;151.32;6.50;;;;;;;20.41;40.98;98505.28;7291614;19;129460;-38
2024/01/16 09:13:13;;;;;;;284.80;11.98;;;;;;;20.51;40.85;98511.22;7286442;19;129870;-38
2024/01/16 09:15:39;;;;;;;253.20;10.10;;;;;;;20.30;40.46;98508.19;7291270;19;130065;-40
2024/01/16 09:18:05;;;;;;;183.77;7.60;;;;;;;20.44;40.50;98481.47;7290110;19;129411;-34
2024/01/16 09:20:31;;;;;;;158.23;6.60;;;;;;;20.42;40.02;98505.13;7290687;19;129596;-37
2024/01/16 09:22:56;;;;;;;180.90;7.63;;;;;;;20.40;40.61;98508.88;7292196;19;131921;-40
2024/01/16 09:25:24;;;;;;;253.70;10.20;;;;;;;19.87;41.10;98487.41;7288385;19;131481;-40
2024/01/16 09:27:50;;;;;;;160.48;6.88;;;;;;;20.35;40.51;98516.34;7291020;19;133293;-39
2024/01/16 09:30:16;;;;;;;246.27;10.03;;;;;;;20.25;40.16;98505.22;7285571;19;129076;-38
2024/01/16 09:32:42;;;;;;;238.57;9.32;;;;;;;20.63;42.24;98507.31;7282932;19;130141;-36
2024/01/16 09:35:09;;;;;;;246.53;9.60;;;;;;;20.77;42.75;98510.09;7281710;19;131302;-36
2024/01/16 09:37:35;;;;;;;209.68;8.13;;;;;;;20.75;42.38;98500.81;7281870;19;128981;-38
2024/01/16 09:40:00;;;;;;;244.40;9.77;;;;;;;20.53;43.49;98493.56;7287934;19;129355;-37
2024/01/16 09:42:27;;;;;;;157.10;6.20;;;;;;;20.63;43.14;98518.56;7286623;19;131906;-37
2024/01/16 09:44:55;;;;;;;264.20;10.90;;;;;;;20.65;43.45;98515.78;7286396;19;130711;-40
2024/01/16 09:47:22;;;;;;;160.10;6.65;;;;;;;20.38;43.18;98485.53;7290073;19;130886;-39
2024/01/16 09:49:48;;;;;;;243.88;9.95;;;;;;;20.50;43.57;98522.59;7288525;19;130312;-42
2024/01/16 09:52:14;;;;;;;177.00;7.30;;;;;;;20.34;44.49;98512.94;7288983;19;129680;-36
2024/01/16 09:54:40;;;;;;;239.18;9.95;;;;;;;20.32;44.43;98519.28;7288291;19;130521;-38
2024/01/16 09:57:07;;;;;;;210.35;8.60;;;;;;;20.15;44.20;98518.41;7292627;19;129325;-41
2024/01/16 09:59:35;;;;;;;181.25;7.60;;;;;;;20.20;44.68;98523.13;7295373;19;130981;-37
2024/01/16 10:02:05;;;;;;;181.93;7.43;;;;;;;20.01;44.96;98518.13;7290828;19;129503;-39
2024/01/16 10:04:31;;;;;;;251.35;10.52;;;;;;;19.99;45.35;98522.69;7295206;19;130432;-40
2024/01/16 10:06:58;;;;;;;191.63;8.27;;;;;;;19.75;44.79;98494.66;7291110;19;129832;-44
2024/01/16 10:09:23;;;;;;;169.13;6.85;;;;;;;19.74;45.26;98513.09;7293652;19;129885;-40
2024/01/16 10:11:50;;;;;;;199.20;7.93;;;;;;;19.55;45.28;98524.56;7295910;19;130200;-40
2024/01/16 10:14:17;;;;;;;236.35;9.40;;;;;;;19.52;45.43;98529.25;7295846;19;131726;-37
2024/01/16 10:16:59;;;;;;;131.63;5.45;;;;;;;19.66;46.22;98526.91;7291358;19;130531;-37
2024/01/16 10:19:27;;;;;;;164.55;6.60;;;;;;;19.68;46.31;98524.13;7289824;19;130229;-39
2024/01/16 10:21:52;;;;;;;171.27;6.88;;;;;;;19.60;45.77;98524.09;7296417;19;129896;-33
2024/01/16 10:24:18;;;;;;;166.82;6.53;;;;;;;19.43;46.37;98505.75;7293578;19;131697;-39
2024/01/16 10:26:43;;;;;;;265.77;10.60;;;;;;;19.38;46.57;98507.16;7296217;19;131847;-36
2024/01/16 10:29:09;;;;;;;198.15;8.10;;;;;;;19.54;46.56;98537.72;7291271;19;132063;-40
2024/01/16 10:31:34;;;;;;;167.85;6.88;;;;;;;19.42;46.18;98516.28;7293468;19;130866;-37
2024/01/16 10:34:00;;;;;;;218.00;8.95;;;;;;;19.50;46.67;98533.78;7294166;19;130250;-38
2024/01/16 10:36:25;;;;;;;214.77;8.38;;;;;;;19.52;46.26;98542.28;7294611;19;130159;-34
2024/01/16 10:38:57;;;;;;;201.98;8.25;;;;;;;19.40;46.36;98516.44;7294235;19;130640;-42
2024/01/16 10:41:27;;;;;;;106.70;5.78;;;;;;;19.51;46.46;98546.66;7296429;19;130359;-39
2024/01/16 10:44:08;;;;;;;184.15;7.50;;;;;;;19.37;46.42;98516.75;7295649;19;130820;-40
2024/01/16 10:46:35;;;;;;;126.45;5.00;;;;;;;19.52;46.52;98547.50;7293881;19;130019;-41
2024/01/16 10:49:04;;;;;;;216.18;8.93;;;;;;;19.52;46.70;98539.69;7295198;19;132381;-40
2024/01/16 10:51:31;;;;;;;195.15;7.75;;;;;;;19.46;46.69;98533.28;7296292;19;129776;-32
2024/01/16 10:54:05;;;;;;;168.85;6.72;;;;;;;19.57;46.93;98540.03;7292822;19;129546;-41
2024/01/16 10:56:31;;;;;;;166.55;6.57;;;;;;;19.51;47.00;98507.56;7292814;19;131489;-39
2024/01/16 10:59:33;;;;;;;268.27;10.57;;;;;;;19.51;46.64;98532.81;7290805;19;129933;-39
2024/01/16 11:02:00;;;;;;;168.60;6.80;;;;;;;19.51;46.70;98538.03;7293509;19;131040;-40
2024/01/16 11:04:27;;;;;;;173.05;6.70;;;;;;;19.42;46.89;98535.34;7294865;19;132621;-39